»·PEaware :: N973SE KSBP-KBFL

N973SE :: KSBP-KBFL

FLIGHT INFORMATION

Flight Status: Arrived
Operator: Privately registered:
United States
More flights under this callsign
Pilot: Stig E. (4778)
Aircraft: Unknown
(DA62)
More flights by this aircraft type
Origin: KSBP San Luis Co Regl
United States
Destination: KBFL Meadows
United States
More flights between these airports :: More routes between these airports
Route: FLW GMN FASTO FASTO2
File this flight plan on PilotEdge
Remarks:
Altitude:
(Current/Filed)
9,500ft
Speed:
(Current/Filed)
165kts
Departed: 09-Aug-18 02:08 AM
Arrived: 09-Aug-18 03:08 AM
Distance/Time
Traveled:
79nm/1:00
Distance/Time
To Go:
Arrived

Flight Plot

Page will automatically refresh every two minutes.

Flight plan parsing failed; only flown route is shown


Map Options




Map Legend


Flown Route
Filed Route
Departure Airport
Arrival Airport
Navaid (VOR, NDB)
Fix

Horizontal Profiles

Position Reports

Time Latitude Longitude Heading Altitude Ground
Speed
09-Aug-18 01:28 35.235546 -120.633766 213 213ft 0kts
09-Aug-18 01:29 35.235546 -120.633766 213 213ft 0kts
09-Aug-18 01:30 35.235546 -120.633766 213 213ft 0kts
09-Aug-18 01:31 35.235546 -120.633766 213 213ft 0kts
09-Aug-18 01:32 35.235546 -120.633766 213 213ft 0kts
09-Aug-18 01:33 35.235546 -120.633766 213 213ft 0kts
09-Aug-18 01:34 35.235546 -120.633766 213 213ft 0kts
09-Aug-18 01:35 35.235546 -120.633766 213 213ft 0kts
09-Aug-18 01:36 35.235546 -120.633766 213 213ft 0kts
09-Aug-18 01:37 35.235546 -120.633766 213 213ft 0kts
09-Aug-18 01:38 35.235546 -120.633766 213 213ft 0kts
09-Aug-18 01:39 35.235546 -120.633766 213 213ft 0kts
09-Aug-18 01:40 35.235546 -120.633766 213 213ft 0kts
09-Aug-18 01:41 35.235546 -120.633766 213 213ft 0kts
09-Aug-18 01:42 35.235546 -120.633766 213 213ft 0kts
09-Aug-18 01:43 35.235546 -120.633766 213 213ft 0kts
09-Aug-18 01:44 35.235439 -120.633855 214 213ft 4kts
09-Aug-18 01:45 35.233828 -120.632699 124 213ft 13kts
09-Aug-18 01:46 35.233251 -120.631727 220 214ft 0kts
09-Aug-18 01:47 35.233251 -120.631727 220 214ft 0kts
09-Aug-18 01:48 35.233251 -120.631727 220 214ft 0kts
09-Aug-18 01:49 35.233251 -120.631727 220 214ft 0kts
09-Aug-18 01:50 35.233251 -120.631727 220 214ft 0kts
09-Aug-18 01:51 35.233251 -120.631727 220 214ft 0kts
09-Aug-18 01:52 35.233251 -120.631727 220 214ft 0kts
09-Aug-18 01:53 35.233251 -120.631727 220 214ft 0kts
09-Aug-18 01:54 35.233251 -120.631727 220 214ft 0kts
09-Aug-18 01:55 35.233251 -120.631727 220 214ft 0kts
09-Aug-18 01:56 35.233251 -120.631727 220 214ft 0kts
09-Aug-18 01:57 35.233251 -120.631727 220 214ft 0kts
09-Aug-18 01:58 35.233251 -120.631727 220 214ft 0kts
09-Aug-18 01:59 35.233251 -120.631727 220 214ft 0kts
09-Aug-18 02:00 35.233251 -120.631727 220 214ft 0kts
09-Aug-18 02:01 35.233251 -120.631727 220 214ft 0kts
09-Aug-18 02:02 35.233251 -120.631727 220 214ft 0kts
09-Aug-18 02:03 35.233251 -120.631727 220 214ft 0kts
09-Aug-18 02:04 35.233251 -120.631727 220 214ft 0kts
09-Aug-18 02:05 35.233251 -120.631727 220 214ft 0kts
09-Aug-18 02:06 35.233251 -120.631727 220 214ft 0kts
09-Aug-18 02:07 35.233251 -120.631727 220 214ft 0kts
09-Aug-18 02:08 35.233017 -120.633190 302 211ft 19kts
09-Aug-18 02:09 35.246410 -120.655665 309 878ft 96kts
09-Aug-18 02:10 35.231320 -120.675001 158 2122ft 99kts
09-Aug-18 02:11 35.214350 -120.649120 123 3346ft 100kts
09-Aug-18 02:12 35.207681 -120.616444 97 4547ft 102kts
09-Aug-18 02:13 35.203274 -120.581985 98 5735ft 104kts
09-Aug-18 02:14 35.198371 -120.546652 99 6914ft 107kts
09-Aug-18 02:15 35.193155 -120.510577 100 8082ft 109kts
09-Aug-18 02:16 35.187736 -120.473952 100 9234ft 111kts
09-Aug-18 02:17 35.181071 -120.429716 100 9508ft 155kts
09-Aug-18 02:18 35.172840 -120.375372 100 9501ft 168kts
09-Aug-18 02:19 35.163988 -120.318494 101 9499ft 171kts
09-Aug-18 02:20 35.155035 -120.261381 101 9499ft 171kts
09-Aug-18 02:21 35.146206 -120.204381 101 9499ft 171kts
09-Aug-18 02:22 35.137349 -120.147086 101 9499ft 171kts
09-Aug-18 02:23 35.128470 -120.089758 101 9499ft 171kts
09-Aug-18 02:24 35.119596 -120.032613 101 9499ft 171kts
09-Aug-18 02:25 35.110681 -119.975390 101 9499ft 171kts
09-Aug-18 02:26 35.102192 -119.917895 100 9499ft 172kts
09-Aug-18 02:27 35.093919 -119.860431 109 9491ft 172kts
09-Aug-18 02:28 35.072118 -119.809261 114 9500ft 171kts
09-Aug-18 02:29 35.054239 -119.755190 110 9499ft 171kts
09-Aug-18 02:30 35.038205 -119.700341 109 9493ft 172kts
09-Aug-18 02:31 35.022693 -119.644925 109 9487ft 172kts
09-Aug-18 02:32 35.007396 -119.589538 108 9481ft 172kts
09-Aug-18 02:33 34.992121 -119.534036 108 9474ft 172kts
09-Aug-18 02:34 34.977153 -119.478651 109 9472ft 172kts
09-Aug-18 02:35 34.962169 -119.423253 108 9474ft 172kts
09-Aug-18 02:36 34.947026 -119.368252 108 9499ft 171kts
09-Aug-18 02:37 34.931552 -119.313177 109 9499ft 171kts
09-Aug-18 02:38 34.916042 -119.258231 109 9499ft 172kts
09-Aug-18 02:39 34.900556 -119.202986 109 9499ft 171kts
09-Aug-18 02:40 34.885050 -119.148109 109 9500ft 171kts
09-Aug-18 02:41 34.869615 -119.093242 109 9500ft 171kts
09-Aug-18 02:42 34.854154 -119.038244 109 9501ft 171kts
09-Aug-18 02:43 34.838811 -118.983670 109 9546ft 169kts
09-Aug-18 02:44 34.823655 -118.929840 109 9595ft 168kts
09-Aug-18 02:45 34.808530 -118.876293 109 9644ft 166kts
09-Aug-18 02:46 34.793509 -118.823145 109 9692ft 165kts
09-Aug-18 02:47 34.778540 -118.770368 109 9711ft 165kts
09-Aug-18 02:48 34.795281 -118.734701 342 9709ft 175kts
09-Aug-18 02:49 34.840266 -118.757179 335 9301ft 175kts
09-Aug-18 02:50 34.883351 -118.783415 330 8659ft 173kts
09-Aug-18 02:51 34.924590 -118.813350 325 8016ft 171kts
09-Aug-18 02:52 34.963100 -118.846306 320 7405ft 167kts
09-Aug-18 02:53 35.006907 -118.858890 357 6792ft 167kts
09-Aug-18 02:54 35.053023 -118.859089 358 6192ft 165kts
09-Aug-18 02:55 35.098493 -118.858882 358 5604ft 162kts
09-Aug-18 02:56 35.143297 -118.858542 358 5025ft 160kts
09-Aug-18 02:57 35.185589 -118.858137 358 4817ft 142kts
09-Aug-18 02:58 35.223765 -118.857756 358 4798ft 133kts
09-Aug-18 02:59 35.256134 -118.857387 357 4792ft 101kts
09-Aug-18 03:00 35.279041 -118.870202 314 4655ft 101kts
09-Aug-18 03:01 35.300335 -118.895470 314 4129ft 106kts
09-Aug-18 03:02 35.320919 -118.920154 315 3571ft 102kts
09-Aug-18 03:03 35.341096 -118.944410 315 3019ft 101kts
09-Aug-18 03:04 35.361117 -118.968443 313 2466ft 100kts
09-Aug-18 03:05 35.380817 -118.992230 314 1920ft 98kts
09-Aug-18 03:06 35.400247 -119.015639 314 1390ft 98kts
09-Aug-18 03:07 35.419502 -119.038860 314 880ft 92kts
09-Aug-18 03:08 35.436198 -119.059130 316 497ft 67kts
09-Aug-18 03:09 35.438710 -119.059830 136 497ft 20kts
09-Aug-18 03:10 35.438514 -119.055745 219 497ft 0kts
09-Aug-18 03:11 35.438514 -119.055745 219 497ft 0kts
09-Aug-18 03:12 35.438514 -119.055745 219 497ft 0kts

Navigation Log

Ident Type
Flight plan parsing failed, navigation log unavailable